Time;durP1;ratioP1;P1;durP2;ratioP2;P2;SDS_P1;SDS_P2;PMS_P1;PMS_P2;Temp;Humidity;BMP_temperature;BMP_pressure;BME280_temperature;BME280_humidity;BME280_pressure;Samples;Min_cycle;Max_cycle;Signal;HPM_P1;HPM_P2
2022/10/21 00:01:14;;;;;;;27.63;24.17;;;;;;;13.67;100.00;100110.78;5072372;28;20566;-73
2022/10/21 00:03:41;;;;;;;34.78;26.35;;;;;;;13.63;100.00;100092.13;5073205;28;20207;-72
2022/10/21 00:06:09;;;;;;;37.08;25.20;;;;;;;13.66;100.00;100081.13;5073282;28;20208;-72
2022/10/21 00:08:36;;;;;;;26.48;23.52;;;;;;;13.64;100.00;100073.09;5072386;28;20255;-73
2022/10/21 00:11:06;;;;;;;34.00;24.63;;;;;;;13.63;100.00;100048.81;5074546;28;20200;-73
2022/10/21 00:13:37;;;;;;;34.25;26.27;;;;;;;13.61;100.00;100046.22;5073528;28;20176;-73
2022/10/21 00:16:06;;;;;;;29.65;24.98;;;;;;;13.60;100.00;100043.63;5073141;28;20276;-73
2022/10/21 00:18:35;;;;;;;32.95;24.42;;;;;;;13.57;100.00;100055.50;5072538;28;20224;-74
2022/10/21 00:21:05;;;;;;;36.00;25.10;;;;;;;13.54;100.00;100052.97;5073100;28;20219;-73
2022/10/21 00:23:32;;;;;;;29.42;24.23;;;;;;;13.49;100.00;100042.44;5072010;28;20211;-74
2022/10/21 00:25:59;;;;;;;36.20;25.80;;;;;;;13.43;100.00;100064.50;5071616;28;20617;-73
2022/10/21 00:28:28;;;;;;;29.88;24.88;;;;;;;13.43;100.00;100061.78;5072133;28;20216;-74
2022/10/21 00:30:55;;;;;;;35.55;24.27;;;;;;;13.30;100.00;100052.69;5071275;28;20204;-75
2022/10/21 00:33:21;;;;;;;33.95;25.33;;;;;;;13.31;100.00;100051.72;5072558;28;20223;-72
2022/10/21 00:35:51;;;;;;;34.53;26.33;;;;;;;13.28;100.00;100049.22;5071360;28;20209;-73
2022/10/21 00:38:17;;;;;;;37.58;26.15;;;;;;;13.34;100.00;100057.81;5071313;28;20674;-74
2022/10/21 00:40:44;;;;;;;32.03;24.40;;;;;;;13.31;100.00;100054.44;5072895;28;20200;-73
2022/10/21 00:43:11;;;;;;;29.10;23.38;;;;;;;13.29;100.00;100064.47;5071905;28;20200;-74
2022/10/21 00:45:39;;;;;;;31.52;25.52;;;;;;;13.32;100.00;100058.91;5071877;28;20613;-74
2022/10/21 00:48:09;;;;;;;34.58;26.27;;;;;;;13.35;100.00;100059.56;5072177;28;20217;-73
2022/10/21 00:50:39;;;;;;;31.13;24.55;;;;;;;13.38;100.00;100061.19;5072401;28;20199;-72
2022/10/21 00:53:09;;;;;;;35.25;25.00;;;;;;;13.38;100.00;100060.31;5072384;28;20283;-74
2022/10/21 00:55:39;;;;;;;33.30;25.30;;;;;;;13.42;100.00;100062.75;5071668;28;20586;-73
2022/10/21 00:58:08;;;;;;;31.00;24.33;;;;;;;13.44;100.00;100057.25;5071999;28;20229;-72
2022/10/21 01:00:34;;;;;;;30.70;25.08;;;;;;;13.42;100.00;100051.94;5073031;28;20220;-74
2022/10/21 01:03:03;;;;;;;35.75;26.33;;;;;;;13.42;100.00;100049.22;5072884;28;20204;-72
2022/10/21 01:05:30;;;;;;;30.30;23.83;;;;;;;13.40;100.00;100042.16;5073049;28;20665;-74
2022/10/21 01:07:57;;;;;;;37.17;25.35;;;;;;;13.41;100.00;100035.78;5072444;28;20289;-73
2022/10/21 01:10:24;;;;;;;36.75;24.30;;;;;;;13.42;100.00;100040.25;5072625;28;20212;-72
2022/10/21 01:13:08;;;;;;;32.33;23.35;;;;;;;13.43;100.00;100032.03;5076101;28;20238;-74
2022/10/21 01:15:40;;;;;;;32.67;23.17;;;;;;;13.47;100.00;100038.09;5075185;28;20670;-74
2022/10/21 01:18:15;;;;;;;30.63;23.23;;;;;;;13.42;100.00;100024.88;5084778;28;20216;-71
2022/10/21 01:21:07;;;;;;;40.22;23.08;;;;;;;13.41;100.00;100020.44;5096092;28;20204;-72
2022/10/21 01:24:07;;;;;;;29.13;22.65;;;;;;;13.44;100.00;100009.41;5083345;28;20192;-73
2022/10/21 01:27:05;;;;;;;30.92;22.85;;;;;;;13.42;100.00;100000.53;5063778;28;20244;-75
2022/10/21 01:30:09;;;;;;;31.48;22.45;;;;;;;13.39;100.00;99986.34;5079118;28;20277;-74
2022/10/21 01:32:55;;;;;;;26.58;22.73;;;;;;;13.41;100.00;99981.69;5016497;28;20298;-73
2022/10/21 01:35:26;;;;;;;33.58;23.42;;;;;;;13.45;100.00;99967.88;5017967;28;20209;-74
2022/10/21 01:38:03;;;;;;;31.45;23.90;;;;;;;13.45;100.00;99965.16;5013552;28;20233;-74
2022/10/21 01:40:35;;;;;;;31.73;22.40;;;;;;;13.45;100.00;99953.47;5014028;28;20205;-75
2022/10/21 01:43:12;;;;;;;27.65;21.73;;;;;;;13.47;100.00;99952.41;5014263;28;20201;-73
2022/10/21 01:45:45;;;;;;;30.23;22.20;;;;;;;13.47;100.00;99949.69;5025334;28;20667;-74
2022/10/21 01:48:18;;;;;;;29.35;23.13;;;;;;;13.50;100.00;99945.94;5017901;28;20221;-75
2022/10/21 01:50:50;;;;;;;28.55;22.75;;;;;;;13.52;100.00;99939.47;5013121;28;20249;-74
2022/10/21 01:53:17;;;;;;;28.05;22.02;;;;;;;13.55;100.00;99944.69;5012672;28;20201;-73
2022/10/21 01:55:46;;;;;;;28.30;22.00;;;;;;;13.55;100.00;99941.97;5013487;28;20281;-75
2022/10/21 01:58:16;;;;;;;28.45;21.05;;;;;;;13.60;100.00;99940.81;5012025;28;20401;-73
2022/10/21 02:00:44;;;;;;;29.55;23.52;;;;;;;13.59;100.00;99934.53;5012383;28;20285;-74
2022/10/21 02:03:16;;;;;;;27.17;21.55;;;;;;;13.59;100.00;99941.75;5013883;28;20190;-75
2022/10/21 02:05:43;;;;;;;31.63;21.95;;;;;;;13.58;100.00;99937.34;5017810;28;20191;-73
2022/10/21 02:08:09;;;;;;;32.22;23.38;;;;;;;13.56;100.00;99938.28;5074050;28;20212;-73
2022/10/21 02:10:39;;;;;;;28.17;21.92;;;;;;;13.59;100.00;99942.66;5075446;28;20197;-74
2022/10/21 02:13:09;;;;;;;30.00;22.90;;;;;;;13.59;100.00;99958.88;5075327;28;20211;-74
2022/10/21 02:15:39;;;;;;;32.25;23.20;;;;;;;13.55;100.00;99966.31;5074628;28;20203;-73
2022/10/21 02:18:07;;;;;;;32.10;22.40;;;;;;;13.48;100.00;99946.03;5074932;28;20220;-74
2022/10/21 02:20:40;;;;;;;35.35;23.77;;;;;;;13.52;100.00;99933.16;5074561;28;20224;-73
2022/10/21 02:23:11;;;;;;;66.80;26.02;;;;;;;13.54;100.00;99942.06;5074024;28;20684;-73
2022/10/21 02:25:40;;;;;;;48.92;24.00;;;;;;;13.59;100.00;99942.66;5074483;28;20185;-72
2022/10/21 02:28:08;;;;;;;38.78;24.65;;;;;;;13.60;100.00;99940.81;5074201;28;20216;-74
2022/10/21 02:30:45;;;;;;;30.92;24.05;;;;;;;13.63;100.00;99964.94;5073798;28;20200;-74
2022/10/21 02:33:19;;;;;;;38.85;24.08;;;;;;;13.63;100.00;99956.84;5073748;28;20204;-73
2022/10/21 02:35:57;;;;;;;38.63;24.92;;;;;;;13.62;100.00;99933.47;5074728;28;20212;-72
2022/10/21 02:38:28;;;;;;;32.88;22.67;;;;;;;13.64;100.00;99932.38;5072138;28;20208;-73
2022/10/21 02:41:00;;;;;;;35.35;23.95;;;;;;;13.66;100.00;99935.00;5074673;28;20193;-74
2022/10/21 02:43:30;;;;;;;30.75;22.55;;;;;;;13.69;100.00;99930.25;5073881;28;20195;-76
2022/10/21 02:46:00;;;;;;;31.15;22.75;;;;;;;13.72;100.00;99927.31;5076511;28;20592;-72
2022/10/21 02:48:27;;;;;;;31.92;23.30;;;;;;;13.76;100.00;99936.97;5074071;28;20219;-73
2022/10/21 02:50:55;;;;;;;34.50;23.13;;;;;;;13.75;100.00;99932.56;5074184;28;20201;-73
2022/10/21 02:53:22;;;;;;;36.83;22.45;;;;;;;13.76;100.00;99917.19;5074244;28;20203;-73
2022/10/21 02:55:48;;;;;;;33.20;22.90;;;;;;;13.77;100.00;99919.78;5073849;28;20296;-73
2022/10/21 02:58:15;;;;;;;33.35;22.52;;;;;;;13.80;100.00;99916.00;5072940;28;20247;-73
2022/10/21 03:00:41;;;;;;;35.80;23.55;;;;;;;13.80;100.00;99916.00;5073857;28;20694;-72
2022/10/21 03:03:08;;;;;;;32.20;22.75;;;;;;;13.84;100.00;99912.13;5074849;28;20201;-75
2022/10/21 03:05:34;;;;;;;30.45;22.23;;;;;;;13.87;100.00;99914.63;5078878;28;20216;-74
2022/10/21 03:08:02;;;;;;;31.20;21.17;;;;;;;13.91;100.00;99926.13;5088141;28;20287;-73
2022/10/21 03:10:29;;;;;;;29.80;22.08;;;;;;;13.91;100.00;99924.28;5088710;28;20189;-72
2022/10/21 03:12:56;;;;;;;29.63;21.70;;;;;;;13.92;100.00;99920.59;5085476;28;20721;-74
2022/10/21 03:15:22;;;;;;;29.70;22.70;;;;;;;13.96;100.00;99918.56;5075265;28;20200;-72
2022/10/21 03:17:49;;;;;;;30.38;22.75;;;;;;;13.96;100.00;99916.72;5074817;28;20235;-75
2022/10/21 03:20:15;;;;;;;30.70;21.60;;;;;;;13.97;100.00;99915.75;5073566;28;20216;-74
2022/10/21 03:22:42;;;;;;;33.03;22.55;;;;;;;13.99;100.00;99907.50;5072909;28;20500;-72
2022/10/21 03:25:11;;;;;;;27.70;20.20;;;;;;;14.01;100.00;99912.84;5074283;28;20216;-73
2022/10/21 03:27:38;;;;;;;28.85;20.60;;;;;;;14.00;100.00;99905.66;5075213;28;20791;-73
2022/10/21 03:30:06;;;;;;;26.92;20.92;;;;;;;14.00;100.00;99895.72;5075022;28;20199;-73
2022/10/21 03:32:33;;;;;;;27.45;21.50;;;;;;;14.00;100.00;99893.03;5076187;28;20201;-72
2022/10/21 03:35:00;;;;;;;33.40;22.70;;;;;;;14.01;100.00;99899.28;5075013;28;20838;-74
2022/10/21 03:37:26;;;;;;;36.60;22.83;;;;;;;14.03;100.00;99894.66;5075580;28;20293;-72
2022/10/21 03:39:53;;;;;;;32.22;21.80;;;;;;;14.02;100.00;99884.78;5073012;28;20250;-72
2022/10/21 03:42:20;;;;;;;27.10;20.88;;;;;;;14.03;100.00;99886.53;5073375;28;20210;-72
2022/10/21 03:44:47;;;;;;;28.45;21.23;;;;;;;14.00;100.00;99884.91;5073376;28;20197;-74
2022/10/21 03:47:13;;;;;;;31.60;23.02;;;;;;;14.03;100.00;99890.09;5073292;28;20589;-74
2022/10/21 03:49:40;;;;;;;39.40;27.55;;;;;;;14.06;100.00;99886.31;5074435;28;20231;-73
2022/10/21 03:52:07;;;;;;;51.95;34.30;;;;;;;14.10;100.00;99895.97;5074469;28;20243;-73
2022/10/21 03:54:33;;;;;;;41.55;30.38;;;;;;;14.10;100.00;99880.56;5073321;28;20205;-73
2022/10/21 03:57:00;;;;;;;36.50;26.13;;;;;;;14.12;100.00;99883.19;5073840;28;20247;-74
2022/10/21 03:59:28;;;;;;;35.25;21.70;;;;;;;14.14;100.00;99881.25;5072822;28;20312;-75
2022/10/21 04:01:54;;;;;;;30.27;22.20;;;;;;;14.09;100.00;99883.41;5093518;28;20252;-72
2022/10/21 04:04:21;;;;;;;36.22;23.60;;;;;;;14.10;100.00;99874.31;5096395;28;20193;-72
2022/10/21 04:06:47;;;;;;;45.47;26.13;;;;;;;14.10;100.00;99877.00;5096770;28;20235;-71
2022/10/21 04:09:14;;;;;;;52.78;30.77;;;;;;;14.12;100.00;99883.19;5092713;28;20197;-71
2022/10/21 04:11:40;;;;;;;38.50;26.67;;;;;;;14.12;100.00;99880.47;5092233;28;20256;-72
2022/10/21 04:14:07;;;;;;;37.67;24.17;;;;;;;14.10;100.00;99867.03;5088910;28;20286;-72
2022/10/21 04:16:35;;;;;;;35.15;24.30;;;;;;;14.12;100.00;99875.06;5082874;28;20232;-73
2022/10/21 04:19:01;;;;;;;49.38;23.70;;;;;;;14.11;100.00;99865.19;5072492;28;20196;-72
2022/10/21 04:21:28;;;;;;;32.17;22.23;;;;;;;14.09;100.00;99869.88;5073043;28;20291;-75
2022/10/21 04:23:54;;;;;;;34.58;23.13;;;;;;;14.05;100.00;99882.75;5063833;28;20208;-74
2022/10/21 04:26:21;;;;;;;41.90;23.45;;;;;;;14.06;100.00;99873.63;5053202;28;20204;-72
2022/10/21 04:28:48;;;;;;;40.88;22.35;;;;;;;14.07;100.00;99864.56;5070667;28;20197;-75
2022/10/21 04:31:15;;;;;;;32.65;21.20;;;;;;;14.04;100.00;99866.59;5075531;28;20250;-74
2022/10/21 04:33:43;;;;;;;35.95;21.83;;;;;;;14.06;100.00;99862.81;5072953;28;20220;-72
2022/10/21 04:36:09;;;;;;;36.67;23.23;;;;;;;14.05;100.00;99862.94;5060767;28;20201;-72
2022/10/21 04:38:36;;;;;;;38.63;22.63;;;;;;;14.05;100.00;99860.22;5056732;28;20591;-73
2022/10/21 04:41:03;;;;;;;34.95;20.85;;;;;;;14.02;100.00;99849.56;5058169;28;20264;-73
2022/10/21 04:43:30;;;;;;;28.42;20.15;;;;;;;14.00;100.00;99854.22;5058986;28;20205;-73
2022/10/21 04:45:56;;;;;;;31.65;20.63;;;;;;;13.98;100.00;99849.81;5089959;22;20248;-76
2022/10/21 04:48:23;;;;;;;31.38;20.70;;;;;;;13.98;100.00;99844.38;5095789;28;20297;-74
2022/10/21 04:50:52;;;;;;;34.88;22.50;;;;;;;13.99;100.00;99837.13;5097083;28;20557;-74
2022/10/21 04:53:19;;;;;;;39.00;24.10;;;;;;;13.99;100.00;99834.41;5096941;28;20200;-73
2022/10/21 04:55:45;;;;;;;46.38;31.83;;;;;;;14.01;100.00;99831.63;5087717;28;20231;-74
2022/10/21 04:58:12;;;;;;;137.95;35.47;;;;;;;14.01;100.00;99831.63;5073552;28;20200;-73
2022/10/21 05:00:38;;;;;;;52.63;25.98;;;;;;;13.98;100.00;99833.56;5057003;28;20225;-74
2022/10/21 05:03:05;;;;;;;44.78;28.55;;;;;;;13.95;100.00;99828.38;5056161;28;20201;-74
2022/10/21 05:05:31;;;;;;;39.55;24.50;;;;;;;13.88;100.00;99842.41;5075042;28;20216;-73
2022/10/21 05:07:59;;;;;;;34.45;22.95;;;;;;;13.87;100.00;99844.25;5075644;28;20196;-73
2022/10/21 05:10:29;;;;;;;47.03;22.63;;;;;;;13.82;100.00;99837.44;5081001;28;20197;-72
2022/10/21 05:12:55;;;;;;;32.30;23.85;;;;;;;13.82;100.00;99840.13;5091640;28;20197;-74
2022/10/21 05:15:22;;;;;;;39.75;19.80;;;;;;;13.79;100.00;99835.78;5079443;28;20220;-76
2022/10/21 05:17:48;;;;;;;25.73;19.27;;;;;;;13.78;100.00;99834.06;5077198;28;20211;-74
2022/10/21 05:20:15;;;;;;;39.50;24.17;;;;;;;13.77;100.00;99826.91;5076939;28;20216;-75
2022/10/21 05:22:42;;;;;;;37.58;21.67;;;;;;;13.76;100.00;99831.44;5079304;28;20287;-76
2022/10/21 05:25:10;;;;;;;28.58;18.92;;;;;;;13.77;100.00;99825.06;5076521;28;20706;-76
2022/10/21 05:27:36;;;;;;;30.92;19.58;;;;;;;13.77;100.00;99819.66;5076624;28;20704;-73
2022/10/21 05:30:06;;;;;;;33.20;19.80;;;;;;;13.77;100.00;99819.66;5075683;28;20192;-74
2022/10/21 05:32:32;;;;;;;28.52;18.83;;;;;;;13.77;100.00;99814.25;5076023;28;20201;-75
2022/10/21 05:34:59;;;;;;;27.90;18.90;;;;;;;13.77;100.00;99822.38;5076497;28;20204;-74
2022/10/21 05:37:25;;;;;;;36.72;23.75;;;;;;;13.75;100.00;99820.75;5076731;28;20629;-74
2022/10/21 05:39:52;;;;;;;41.15;23.20;;;;;;;13.72;100.00;99819.06;5075755;28;20220;-74
2022/10/21 05:42:20;;;;;;;29.17;20.40;;;;;;;13.68;100.00;99820.28;5082781;28;20211;-75
2022/10/21 05:44:47;;;;;;;34.65;19.00;;;;;;;13.69;100.00;99821.13;5077110;28;20203;-75
2022/10/21 05:47:13;;;;;;;44.40;26.95;;;;;;;13.68;100.00;99822.09;5076659;28;20231;-74
2022/10/21 05:49:40;;;;;;;57.60;36.58;;;;;;;13.66;100.00;99811.41;5076500;28;20204;-75
2022/10/21 05:52:06;;;;;;;34.40;22.23;;;;;;;13.64;100.00;99820.59;5081247;28;20713;-76
2022/10/21 05:54:33;;;;;;;27.83;18.65;;;;;;;13.61;100.00;99801.84;5082071;28;20201;-76
2022/10/21 05:57:01;;;;;;;29.40;20.00;;;;;;;13.59;100.00;99799.25;5083858;28;20217;-75
2022/10/21 05:59:29;;;;;;;37.42;20.63;;;;;;;13.61;100.00;99801.84;5082010;28;20673;-74
2022/10/21 06:01:55;;;;;;;57.00;23.85;;;;;;;13.56;100.00;99800.31;5082211;28;20205;-75
2022/10/21 06:04:22;;;;;;;48.17;23.23;;;;;;;13.59;100.00;99803.78;5080006;28;20567;-75
2022/10/21 06:06:48;;;;;;;34.70;19.80;;;;;;;13.63;100.00;99791.78;5079532;28;20221;-74
2022/10/21 06:09:15;;;;;;;45.63;20.27;;;;;;;13.72;100.00;99794.72;5075520;28;20207;-76
2022/10/21 06:11:41;;;;;;;34.10;20.85;;;;;;;13.64;100.00;99802.50;5075771;28;20201;-76
2022/10/21 06:14:08;;;;;;;41.35;22.92;;;;;;;13.65;100.00;99806.09;5078292;28;20200;-75
2022/10/21 06:16:35;;;;;;;42.35;25.98;;;;;;;13.64;100.00;99805.22;5074650;28;20584;-76
2022/10/21 06:19:03;;;;;;;39.28;24.17;;;;;;;13.64;100.00;99816.03;5078638;28;20228;-73
2022/10/21 06:21:29;;;;;;;32.10;21.05;;;;;;;13.68;100.00;99813.97;5090196;28;20220;-73
2022/10/21 06:23:56;;;;;;;42.55;20.23;;;;;;;13.72;100.00;99818.22;5089510;28;20197;-74
2022/10/21 06:26:23;;;;;;;38.03;20.98;;;;;;;13.72;100.00;99816.38;5089974;28;20228;-72
2022/10/21 06:28:49;;;;;;;30.05;19.13;;;;;;;13.73;100.00;99822.69;5079689;28;20201;-74
2022/10/21 06:31:19;;;;;;;53.67;19.55;;;;;;;13.64;100.00;99823.31;5076684;28;20561;-73
2022/10/21 06:33:47;;;;;;;30.55;19.17;;;;;;;13.64;100.00;99815.19;5075036;28;20574;-74
2022/10/21 06:36:14;;;;;;;27.38;17.33;;;;;;;13.66;100.00;99816.81;5075903;28;20657;-74
2022/10/21 06:38:41;;;;;;;27.15;17.65;;;;;;;13.69;100.00;99807.63;5075032;28;20200;-76
2022/10/21 06:41:09;;;;;;;31.08;18.65;;;;;;;13.70;100.00;99807.53;5079666;28;20228;-73
2022/10/21 06:43:36;;;;;;;26.17;16.90;;;;;;;13.75;100.00;99809.91;5097399;28;20197;-73
2022/10/21 06:46:04;;;;;;;24.70;17.33;;;;;;;13.81;100.00;99814.88;5098462;28;20272;-73
2022/10/21 06:48:31;;;;;;;23.60;16.77;;;;;;;13.79;100.00;99806.00;5098052;28;20224;-73
2022/10/21 06:51:00;;;;;;;25.27;17.42;;;;;;;13.81;100.00;99808.63;5097240;28;20204;-73
2022/10/21 06:53:28;;;;;;;21.40;15.50;;;;;;;13.77;100.00;99808.84;5081437;28;20201;-74
2022/10/21 06:56:00;;;;;;;21.27;14.70;;;;;;;13.81;100.00;99816.72;5075707;28;20569;-74
2022/10/21 06:58:27;;;;;;;20.08;14.60;;;;;;;13.76;100.00;99822.47;5074853;28;20197;-74
2022/10/21 07:00:55;;;;;;;20.80;14.38;;;;;;;13.80;100.00;99815.00;5075466;28;20715;-74
2022/10/21 07:03:21;;;;;;;18.80;13.32;;;;;;;13.81;100.00;99833.81;5075443;28;20286;-74
2022/10/21 07:05:49;;;;;;;18.23;14.18;;;;;;;13.78;100.00;99825.94;5074832;28;20224;-74
2022/10/21 07:08:17;;;;;;;15.70;12.77;;;;;;;13.81;100.00;99828.41;5073738;28;20585;-73
2022/10/21 07:10:44;;;;;;;18.15;12.65;;;;;;;13.83;100.00;99834.59;5074823;28;20198;-75
2022/10/21 07:13:11;;;;;;;17.85;14.10;;;;;;;13.86;100.00;99834.41;5075353;28;20228;-75
2022/10/21 07:15:38;;;;;;;15.82;12.95;;;;;;;13.92;100.00;99855.63;5077114;28;20234;-74
2022/10/21 07:18:04;;;;;;;16.90;13.38;;;;;;;13.95;100.00;99850.03;5074632;28;20207;-73
2022/10/21 07:20:32;;;;;;;19.23;14.57;;;;;;;13.96;100.00;99854.44;5078702;28;20716;-76
2022/10/21 07:22:59;;;;;;;21.30;16.92;;;;;;;13.98;100.00;99860.63;5081553;28;20200;-74
2022/10/21 07:25:27;;;;;;;16.13;13.50;;;;;;;13.92;100.00;99865.59;5085143;28;20220;-76
2022/10/21 07:27:53;;;;;;;15.70;13.10;;;;;;;13.91;100.00;99864.72;5086348;28;20211;-76
2022/10/21 07:30:22;;;;;;;20.42;13.60;;;;;;;13.86;100.00;99866.88;5080792;28;20550;-74
2022/10/21 07:32:48;;;;;;;17.27;14.07;;;;;;;13.89;100.00;99863.97;5079080;28;20295;-78
2022/10/21 07:35:15;;;;;;;21.67;15.98;;;;;;;13.77;100.00;99870.22;5077509;28;20728;-76
2022/10/21 07:37:41;;;;;;;19.60;14.25;;;;;;;13.80;100.00;99880.81;5076336;28;20201;-77
2022/10/21 07:40:11;;;;;;;19.25;12.70;;;;;;;13.78;100.00;99874.66;5079961;28;20662;-74
2022/10/21 07:42:38;;;;;;;18.38;14.50;;;;;;;13.82;100.00;99881.59;5087396;28;20197;-76
2022/10/21 07:45:06;;;;;;;20.83;14.60;;;;;;;13.77;100.00;99883.75;5074470;28;20311;-75
2022/10/21 07:47:32;;;;;;;18.42;13.90;;;;;;;13.83;100.00;99883.31;5074987;28;20579;-73
2022/10/21 07:49:59;;;;;;;20.08;14.00;;;;;;;13.82;100.00;99888.84;5074951;28;20235;-74
2022/10/21 07:52:26;;;;;;;20.00;14.82;;;;;;;13.80;100.00;99883.53;5073773;28;20219;-73
2022/10/21 07:54:52;;;;;;;18.48;14.55;;;;;;;13.98;100.00;99885.00;5074430;28;20207;-73
2022/10/21 07:57:19;;;;;;;30.95;15.43;;;;;;;14.01;100.00;99888.47;5074457;28;20299;-77
2022/10/21 07:59:47;;;;;;;24.33;15.18;;;;;;;13.98;100.00;99887.69;5075494;28;20568;-74
2022/10/21 08:02:14;;;;;;;21.42;15.02;;;;;;;13.94;100.00;99886.16;5076476;28;20235;-75
2022/10/21 08:04:41;;;;;;;18.88;14.88;;;;;;;13.91;100.00;99872.00;5077362;28;20202;-73
2022/10/21 08:07:07;;;;;;;21.10;14.45;;;;;;;13.93;100.00;99873.63;5074012;28;20717;-74
2022/10/21 08:09:34;;;;;;;19.35;14.88;;;;;;;13.96;100.00;99880.66;5073027;28;20205;-76
2022/10/21 08:12:00;;;;;;;22.20;14.48;;;;;;;14.01;100.00;99874.94;5073241;28;20610;-75
2022/10/21 08:14:27;;;;;;;23.08;15.77;;;;;;;14.02;100.00;99876.66;5074970;28;20692;-75
2022/10/21 08:16:55;;;;;;;20.25;15.65;;;;;;;14.09;100.00;99872.56;5075583;28;20798;-75
2022/10/21 08:19:28;;;;;;;21.10;15.57;;;;;;;14.18;100.00;99861.13;5074216;28;20197;-74
2022/10/21 08:21:55;;;;;;;20.35;15.45;;;;;;;14.25;100.00;99862.41;5076289;28;20205;-73
2022/10/21 08:24:22;;;;;;;20.13;14.32;;;;;;;14.37;100.00;99857.97;5084272;28;20211;-74
2022/10/21 08:26:49;;;;;;;19.38;14.40;;;;;;;14.46;100.00;99860.06;5073400;28;20234;-73
2022/10/21 08:29:15;;;;;;;23.77;14.85;;;;;;;14.47;100.00;99855.50;5074130;28;20197;-73
2022/10/21 08:31:42;;;;;;;22.92;14.07;;;;;;;14.54;100.00;99854.06;5080069;28;20198;-77
2022/10/21 08:34:10;;;;;;;20.02;14.18;;;;;;;14.60;100.00;99854.53;5078259;28;20307;-75
2022/10/21 08:36:38;;;;;;;18.08;14.00;;;;;;;14.63;100.00;99849.88;5077059;28;20220;-75
2022/10/21 08:39:05;;;;;;;23.10;14.82;;;;;;;14.65;100.00;99846.09;5075641;28;20201;-75
2022/10/21 08:41:56;;;;;;;20.63;14.07;;;;;;;14.70;100.00;99843.09;5075318;28;20220;-75
2022/10/21 08:44:31;;;;;;;20.20;14.48;;;;;;;14.68;100.00;99845.88;5075256;28;20551;-73
2022/10/21 08:47:04;;;;;;;20.95;14.55;;;;;;;14.69;100.00;99841.34;5072353;28;20228;-75
2022/10/21 08:49:42;;;;;;;27.85;15.68;;;;;;;14.81;100.00;99854.00;5072330;28;20662;-75
2022/10/21 08:52:14;;;;;;;20.60;15.13;;;;;;;14.86;100.00;99850.97;5072999;28;20185;-74
2022/10/21 08:54:45;;;;;;;19.13;13.52;;;;;;;14.85;100.00;99851.94;5074501;28;20191;-76
2022/10/21 08:57:12;;;;;;;20.50;14.73;;;;;;;14.84;100.00;99859.22;5082284;28;20188;-73
2022/10/21 08:59:40;;;;;;;23.20;15.90;;;;;;;14.94;100.00;99856.69;5075199;28;20209;-74
2022/10/21 09:02:28;;;;;;;21.75;15.93;;;;;;;14.95;100.00;99853.88;5073289;28;20227;-74
2022/10/21 09:05:12;;;;;;;19.75;13.00;;;;;;;15.00;100.00;99842.72;5073761;28;20185;-73
2022/10/21 09:07:48;;;;;;;21.17;14.32;;;;;;;15.04;100.00;99836.09;5072754;28;20212;-75
2022/10/21 09:10:26;;;;;;;19.25;13.95;;;;;;;15.06;100.00;99863.97;5073252;28;20185;-76
2022/10/21 09:13:03;;;;;;;21.55;14.10;;;;;;;15.02;100.00;99860.59;5073146;28;20180;-74
2022/10/21 09:15:35;;;;;;;18.42;13.85;;;;;;;15.06;100.00;99863.06;5076141;28;20724;-74
2022/10/21 09:18:18;;;;;;;18.88;14.07;;;;;;;15.04;100.00;99856.88;5088582;28;20185;-74
2022/10/21 09:20:55;;;;;;;18.65;14.50;;;;;;;15.09;100.00;99846.59;5092797;28;20249;-75
2022/10/21 09:23:37;;;;;;;20.35;14.55;;;;;;;15.13;100.00;99853.53;5085926;28;20248;-75
2022/10/21 09:26:10;;;;;;;24.45;14.82;;;;;;;15.22;100.00;99855.56;5075810;28;20224;-73
2022/10/21 09:28:37;;;;;;;21.40;14.65;;;;;;;15.19;100.00;99866.63;5075006;28;20189;-75
2022/10/21 09:31:15;;;;;;;19.90;14.35;;;;;;;15.33;100.00;99868.31;5073963;28;20196;-74
2022/10/21 09:33:44;;;;;;;20.58;14.85;;;;;;;15.30;100.00;99865.84;5077660;28;20195;-75
2022/10/21 09:36:18;;;;;;;21.15;15.65;;;;;;;15.27;100.00;99866.09;5077828;28;20220;-75
2022/10/21 09:38:48;;;;;;;20.23;16.25;;;;;;;15.21;100.00;99867.38;5078055;28;20204;-74
2022/10/21 09:41:19;;;;;;;19.98;14.57;;;;;;;15.25;100.00;99863.47;5076983;28;20208;-76
2022/10/21 09:43:48;;;;;;;18.98;13.85;;;;;;;15.22;100.00;99864.56;5076913;28;20232;-75
2022/10/21 09:46:16;;;;;;;24.05;15.57;;;;;;;15.20;100.00;99862.94;5078159;28;20212;-74
2022/10/21 09:48:46;;;;;;;20.77;15.13;;;;;;;15.21;100.00;99868.25;5078295;28;20199;-74
2022/10/21 09:51:17;;;;;;;19.85;14.20;;;;;;;15.18;100.00;99873.03;5083809;28;20288;-73
2022/10/21 09:53:49;;;;;;;22.35;15.15;;;;;;;15.20;100.00;99869.25;5078576;28;20189;-74
2022/10/21 09:56:19;;;;;;;21.77;15.30;;;;;;;15.27;100.00;99874.22;5075309;28;20227;-74
2022/10/21 09:58:50;;;;;;;16.83;14.88;;;;;;;15.27;100.00;99864.22;5075434;28;20276;-75
2022/10/21 10:01:19;;;;;;;18.58;15.60;;;;;;;15.34;100.00;99870.06;5076991;28;20225;-76
2022/10/21 10:03:48;;;;;;;20.00;15.30;;;;;;;15.31;100.00;99870.28;5075364;28;20235;-74
2022/10/21 10:06:30;;;;;;;21.45;14.98;;;;;;;15.29;100.00;99869.56;5075094;28;20227;-75
2022/10/21 10:09:13;;;;;;;18.67;12.63;;;;;;;15.27;100.00;99868.78;5078065;28;20189;-75
2022/10/21 10:11:49;;;;;;;15.00;13.10;;;;;;;15.38;100.00;99864.31;5076471;28;20188;-74
2022/10/21 10:14:24;;;;;;;19.67;14.65;;;;;;;15.41;100.00;99855.94;5083319;28;20277;-75
2022/10/21 10:16:51;;;;;;;13.98;10.95;;;;;;;15.46;100.00;99868.28;5087067;28;20306;-73
2022/10/21 10:19:20;;;;;;;18.38;11.93;;;;;;;15.45;100.00;99867.44;5085115;28;20222;-75
2022/10/21 10:22:07;;;;;;;14.07;10.32;;;;;;;15.45;100.00;99875.56;5083685;28;20221;-73
2022/10/21 10:24:34;;;;;;;11.55;9.80;;;;;;;15.53;100.00;99875.00;5076266;28;20526;-74
2022/10/21 10:27:04;;;;;;;13.25;9.75;;;;;;;15.46;100.00;99877.28;5073912;28;20231;-75
2022/10/21 10:29:32;;;;;;;12.95;8.77;;;;;;;15.48;100.00;99867.19;5074066;28;20671;-73
2022/10/21 10:32:01;;;;;;;9.65;8.30;;;;;;;15.49;100.00;99866.22;5074326;28;20291;-72
2022/10/21 10:34:33;;;;;;;12.00;8.57;;;;;;;15.52;100.00;99866.00;5074191;28;20551;-73
2022/10/21 10:37:04;;;;;;;10.18;8.35;;;;;;;15.52;100.00;99871.41;5074035;28;20225;-75
2022/10/21 10:39:35;;;;;;;14.02;8.50;;;;;;;15.51;100.00;99885.97;5074130;28;20640;-73
2022/10/21 10:42:02;;;;;;;9.00;7.40;;;;;;;15.54;100.00;99871.31;5076873;28;20205;-73
2022/10/21 10:44:33;;;;;;;9.32;7.57;;;;;;;15.54;100.00;99876.75;5082293;28;20228;-73
2022/10/21 10:47:02;;;;;;;8.82;7.78;;;;;;;15.57;100.00;99873.78;5084450;28;20235;-75
2022/10/21 10:49:38;;;;;;;7.25;6.32;;;;;;;15.54;100.00;99874.03;5081435;28;20392;-75
2022/10/21 10:52:20;;;;;;;8.90;8.00;;;;;;;15.53;100.00;99873.13;5077452;28;20187;-75
2022/10/21 10:54:47;;;;;;;9.73;7.68;;;;;;;15.62;100.00;99871.59;5073979;28;20185;-74
2022/10/21 10:57:17;;;;;;;10.10;7.65;;;;;;;15.63;100.00;99868.78;5074251;28;20205;-75
2022/10/21 10:59:47;;;;;;;8.38;6.90;;;;;;;15.53;100.00;99862.28;5079195;28;20570;-75
2022/10/21 11:02:23;;;;;;;8.07;7.25;;;;;;;15.57;100.00;99855.66;5076881;28;20235;-75
2022/10/21 11:05:15;;;;;;;8.25;6.63;;;;;;;15.58;100.00;99857.41;5079390;28;20188;-73
2022/10/21 11:07:46;;;;;;;8.07;6.05;;;;;;;15.58;100.00;99846.53;5095407;28;20173;-77
2022/10/21 11:10:26;;;;;;;10.00;7.13;;;;;;;15.60;100.00;99840.97;5094025;28;20188;-74
2022/10/21 11:12:53;;;;;;;10.90;7.20;;;;;;;15.60;100.00;99836.44;5075605;28;20192;-75
2022/10/21 11:15:25;;;;;;;9.27;7.30;;;;;;;15.59;100.00;99822.97;5081143;28;20378;-75
2022/10/21 11:17:59;;;;;;;7.35;6.25;;;;;;;15.63;100.00;99817.19;5075264;28;20185;-76
2022/10/21 11:20:33;;;;;;;9.00;8.10;;;;;;;15.55;100.00;99808.75;5075517;28;20215;-75